createdAt,value
2023-03-05T00:01:16.682Z,17.10
2023-03-05T00:03:44.779Z,17.17
2023-03-05T00:06:12.414Z,17.30
2023-03-05T00:08:39.738Z,16.45
2023-03-05T00:11:11.845Z,17.05
2023-03-05T00:13:39.688Z,17.88
2023-03-05T00:16:10.454Z,17.70
2023-03-05T00:18:38.632Z,17.40
2023-03-05T00:21:23.287Z,16.85
2023-03-05T00:23:51.172Z,16.75
2023-03-05T00:26:23.648Z,17.73
2023-03-05T00:28:52.460Z,15.57
2023-03-05T00:31:26.556Z,17.88
2023-03-05T00:33:57.764Z,17.13
2023-03-05T00:36:30.581Z,16.20
2023-03-05T00:38:58.549Z,17.23
2023-03-05T00:41:30.627Z,16.42
2023-03-05T00:43:57.942Z,16.05
2023-03-05T00:46:27.505Z,15.98
2023-03-05T00:48:57.625Z,16.38
2023-03-05T00:51:27.478Z,16.90
2023-03-05T00:53:55.572Z,16.55
2023-03-05T00:56:25.105Z,16.52
2023-03-05T00:58:53.400Z,16.45
2023-03-05T01:01:20.734Z,16.67
2023-03-05T01:03:50.471Z,15.82
2023-03-05T01:06:18.393Z,16.17
2023-03-05T01:08:45.896Z,16.35
2023-03-05T01:11:13.721Z,15.90
2023-03-05T01:13:43.502Z,15.77
2023-03-05T01:16:13.187Z,15.68
2023-03-05T01:18:41.039Z,14.93
2023-03-05T01:21:08.804Z,15.55
2023-03-05T01:23:37.418Z,16.00
2023-03-05T01:26:08.528Z,14.40
2023-03-05T01:28:35.937Z,14.25
2023-03-05T01:31:09.871Z,14.15
2023-03-05T01:33:37.292Z,15.07
2023-03-05T01:36:09.019Z,15.65
2023-03-05T01:41:03.389Z,14.60
2023-03-05T01:43:33.857Z,14.60
2023-03-05T01:46:26.529Z,15.00
2023-03-05T01:48:59.680Z,15.73
2023-03-05T01:51:29.642Z,14.95
2023-03-05T01:54:00.531Z,15.10
2023-03-05T01:56:29.938Z,14.73
2023-03-05T01:59:03.558Z,16.02
2023-03-05T02:01:40.995Z,15.60
2023-03-05T02:04:15.873Z,14.67
2023-03-05T02:06:44.792Z,16.60
2023-03-05T02:09:12.227Z,16.45
2023-03-05T02:11:39.876Z,15.48
2023-03-05T02:14:10.149Z,16.30
2023-03-05T02:16:43.743Z,16.23
2023-03-05T02:19:17.322Z,15.75
2023-03-05T02:21:47.681Z,15.80
2023-03-05T02:24:17.272Z,15.35
2023-03-05T02:26:48.855Z,16.17
2023-03-05T02:29:20.711Z,15.77
2023-03-05T02:31:50.318Z,16.30
2023-03-05T02:34:19.988Z,15.98
2023-03-05T02:36:50.769Z,16.33
2023-03-05T02:39:20.318Z,16.30
2023-03-05T02:41:50.049Z,16.15
2023-03-05T02:44:17.309Z,15.50
2023-03-05T02:46:44.634Z,16.83
2023-03-05T02:49:16.986Z,15.77
2023-03-05T02:51:46.455Z,16.10
2023-03-05T02:54:13.696Z,16.05
2023-03-05T02:56:40.979Z,16.42
2023-03-05T02:59:10.770Z,16.08
2023-03-05T03:01:40.439Z,15.57
2023-03-05T03:04:10.056Z,15.95
2023-03-05T03:06:39.699Z,15.82
2023-03-05T03:09:06.960Z,14.95
2023-03-05T03:11:34.286Z,15.88
2023-03-05T03:14:03.653Z,16.02
2023-03-05T03:16:30.889Z,16.25
2023-03-05T03:18:58.157Z,17.38
2023-03-05T03:21:28.268Z,15.85
2023-03-05T03:23:55.602Z,15.75
2023-03-05T03:26:22.863Z,16.08
2023-03-05T03:28:52.403Z,16.00
2023-03-05T03:31:22.087Z,16.08
2023-03-05T03:33:49.675Z,15.95
2023-03-05T03:36:17.039Z,16.05
2023-03-05T03:38:46.708Z,16.52
2023-03-05T03:41:20.080Z,15.82
2023-03-05T03:43:47.341Z,15.82
2023-03-05T03:46:17.653Z,15.82
2023-03-05T03:48:44.964Z,15.40
2023-03-05T03:51:12.204Z,15.30
2023-03-05T03:53:39.566Z,16.10
2023-03-05T03:56:07.141Z,16.27
2023-03-05T03:58:36.535Z,16.20
2023-03-05T04:01:04.001Z,16.70
2023-03-05T04:03:31.395Z,17.02
2023-03-05T04:06:01.085Z,17.10
2023-03-05T04:08:28.468Z,17.35
2023-03-05T04:10:55.725Z,17.60
2023-03-05T04:13:23.037Z,17.52
2023-03-05T04:15:50.541Z,17.27
2023-03-05T04:18:17.907Z,16.85
2023-03-05T04:20:47.705Z,18.30
2023-03-05T04:23:15.410Z,17.52
2023-03-05T04:25:42.681Z,17.77
2023-03-05T04:28:09.981Z,17.98
2023-03-05T04:30:39.576Z,18.48
2023-03-05T04:33:09.491Z,16.42
2023-03-05T04:35:37.080Z,17.98
2023-03-05T04:38:06.917Z,18.27
2023-03-05T04:40:34.616Z,18.33
2023-03-05T04:43:04.118Z,18.08
2023-03-05T04:45:31.821Z,19.20
2023-03-05T04:47:59.581Z,19.52
2023-03-05T04:50:26.971Z,21.70
2023-03-05T04:52:54.638Z,23.13
2023-03-05T04:55:24.395Z,20.00
2023-03-05T04:57:51.646Z,18.80
2023-03-05T05:00:21.794Z,18.67
2023-03-05T05:02:51.285Z,18.52
2023-03-05T05:05:21.502Z,18.98
2023-03-05T05:07:49.212Z,17.77
2023-03-05T05:10:16.969Z,17.83
2023-03-05T05:12:51.371Z,17.40
2023-03-05T05:15:19.238Z,16.42
2023-03-05T05:17:47.207Z,17.23
2023-03-05T05:20:18.297Z,16.67
2023-03-05T05:22:45.689Z,17.10
2023-03-05T05:25:15.091Z,17.20
2023-03-05T05:27:42.527Z,17.10
2023-03-05T05:30:10.615Z,17.17
2023-03-05T05:32:37.985Z,17.88
2023-03-05T05:35:05.711Z,17.35
2023-03-05T05:37:35.372Z,17.85
2023-03-05T05:40:05.377Z,18.13
2023-03-05T05:42:33.386Z,17.50
2023-03-05T05:45:02.950Z,16.75
2023-03-05T05:47:30.769Z,17.42
2023-03-05T05:49:58.143Z,17.58
2023-03-05T05:52:27.992Z,16.80
2023-03-05T05:54:55.287Z,17.00
2023-03-05T05:57:22.582Z,17.20
2023-03-05T05:59:52.438Z,17.95
2023-03-05T06:02:19.754Z,15.93
2023-03-05T06:04:47.188Z,17.23
2023-03-05T06:07:14.486Z,17.10
2023-03-05T06:09:41.924Z,18.73
2023-03-05T06:12:09.279Z,17.63
2023-03-05T06:14:36.784Z,15.85
2023-03-05T06:17:11.242Z,16.23
2023-03-05T06:19:40.211Z,15.40
2023-03-05T06:22:07.858Z,14.55
2023-03-05T06:24:37.654Z,15.65
2023-03-05T06:27:06.016Z,15.35
2023-03-05T06:29:33.400Z,15.95
2023-03-05T06:32:00.758Z,16.88
2023-03-05T06:34:30.336Z,15.48
2023-03-05T06:36:57.677Z,16.13
2023-03-05T06:39:24.928Z,16.20
2023-03-05T06:41:52.306Z,16.73
2023-03-05T06:44:25.779Z,16.77
2023-03-05T06:46:53.204Z,16.75
2023-03-05T06:49:20.807Z,17.55
2023-03-05T06:51:48.206Z,16.85
2023-03-05T06:54:21.349Z,17.27
2023-03-05T06:56:48.620Z,17.08
2023-03-05T06:59:16.934Z,17.27
2023-03-05T07:01:45.363Z,17.38
2023-03-05T07:04:13.691Z,18.07
2023-03-05T07:06:44.761Z,17.83
2023-03-05T07:09:15.200Z,16.95
2023-03-05T07:11:42.715Z,17.70
2023-03-05T07:14:10.068Z,17.92
2023-03-05T07:16:39.559Z,17.95
2023-03-05T07:19:08.013Z,18.27
2023-03-05T07:21:39.860Z,17.48
2023-03-05T07:24:12.348Z,17.38
2023-03-05T07:26:39.618Z,18.10
2023-03-05T07:29:09.375Z,18.58
2023-03-05T07:31:36.960Z,17.88
2023-03-05T07:34:04.405Z,18.35
2023-03-05T07:36:31.889Z,17.45
2023-03-05T07:39:01.982Z,18.25
2023-03-05T07:41:29.308Z,18.40
2023-03-05T07:43:56.722Z,18.67
2023-03-05T07:46:27.764Z,17.77
2023-03-05T07:48:55.865Z,18.92
2023-03-05T07:51:27.156Z,18.98
2023-03-05T07:53:57.546Z,19.90
2023-03-05T07:56:35.356Z,17.35
2023-03-05T07:59:09.266Z,18.00
2023-03-05T08:01:37.346Z,18.23
2023-03-05T08:04:07.178Z,20.50
2023-03-05T08:06:34.517Z,24.52
2023-03-05T08:09:01.843Z,21.98
2023-03-05T08:11:29.355Z,21.40
2023-03-05T08:13:59.558Z,19.58
2023-03-05T08:16:27.717Z,20.58
2023-03-05T08:18:57.371Z,20.38
2023-03-05T08:21:35.796Z,21.88
2023-03-05T08:24:08.152Z,26.65
2023-03-05T08:26:39.524Z,22.67
2023-03-05T08:29:11.046Z,20.85
2023-03-05T08:31:39.509Z,20.27
2023-03-05T08:34:07.219Z,19.08
2023-03-05T08:36:34.540Z,24.23
2023-03-05T08:39:06.777Z,24.60
2023-03-05T08:41:36.721Z,25.00
2023-03-05T08:44:07.194Z,20.75
2023-03-05T08:46:38.914Z,20.85
2023-03-05T08:51:35.947Z,18.77
2023-03-05T08:54:07.533Z,18.50
2023-03-05T08:56:37.662Z,17.85
2023-03-05T08:59:05.838Z,18.83
2023-03-05T09:01:33.230Z,18.35
2023-03-05T09:04:01.231Z,18.35
2023-03-05T09:06:31.092Z,18.55
2023-03-05T09:08:58.405Z,17.70
2023-03-05T09:11:25.783Z,17.77
2023-03-05T09:13:53.040Z,18.05
2023-03-05T09:16:23.388Z,17.90
2023-03-05T09:18:50.751Z,19.38
2023-03-05T09:21:20.811Z,18.90
2023-03-05T09:23:48.229Z,18.40
2023-03-05T09:26:19.481Z,17.38
2023-03-05T09:28:47.785Z,16.77
2023-03-05T09:31:17.740Z,16.40
2023-03-05T09:33:45.080Z,15.75
2023-03-05T09:36:25.186Z,15.77
2023-03-05T09:38:52.844Z,16.23
2023-03-05T09:41:53.988Z,15.43
2023-03-05T09:44:36.298Z,15.95
2023-03-05T09:47:22.457Z,15.23
2023-03-05T09:50:01.541Z,15.05
2023-03-05T09:52:46.643Z,14.48
2023-03-05T09:55:43.910Z,13.23
2023-03-05T09:58:35.706Z,14.23
2023-03-05T10:01:10.820Z,13.65
2023-03-05T10:03:41.267Z,13.93
2023-03-05T10:06:11.625Z,14.55
2023-03-05T10:08:48.903Z,13.98
2023-03-05T10:11:38.043Z,13.65
2023-03-05T10:14:09.280Z,13.23
2023-03-05T10:16:45.518Z,13.02
2023-03-05T10:19:33.170Z,13.75
2023-03-05T10:22:24.322Z,12.98
2023-03-05T10:25:06.642Z,14.17
2023-03-05T10:27:45.767Z,14.07
2023-03-05T10:30:41.209Z,14.30
2023-03-05T10:33:41.922Z,13.52
2023-03-05T10:36:45.994Z,13.10
2023-03-05T10:39:50.245Z,13.77
2023-03-05T10:42:31.347Z,14.27
2023-03-05T10:45:01.181Z,14.05
2023-03-05T10:47:58.543Z,14.32
2023-03-05T10:50:36.609Z,13.07
2023-03-05T10:53:24.414Z,15.43
2023-03-05T10:55:56.202Z,13.80
2023-03-05T11:01:18.927Z,12.88
2023-03-05T11:03:57.838Z,13.32
2023-03-05T11:06:32.239Z,12.45
2023-03-05T11:09:29.278Z,13.25
2023-03-05T11:12:19.666Z,13.30
2023-03-05T11:15:03.788Z,14.00
2023-03-05T11:17:33.127Z,13.63
2023-03-05T11:20:31.605Z,14.10
2023-03-05T11:23:08.728Z,13.60
2023-03-05T11:25:58.672Z,12.75
2023-03-05T11:28:39.496Z,12.45
2023-03-05T11:31:16.099Z,13.30
2023-03-05T11:33:56.815Z,12.90
2023-03-05T11:36:39.081Z,12.50
2023-03-05T11:39:06.599Z,12.35
2023-03-05T11:41:52.597Z,12.10
2023-03-05T11:44:29.569Z,11.52
2023-03-05T11:47:18.806Z,12.00
2023-03-05T11:49:50.458Z,11.63
2023-03-05T11:52:39.021Z,10.77
2023-03-05T11:55:41.420Z,11.73
2023-03-05T11:58:39.442Z,12.30
2023-03-05T12:01:19.388Z,11.27
2023-03-05T12:03:49.816Z,12.75
2023-03-05T12:06:38.373Z,11.18
2023-03-05T12:09:28.413Z,12.50
2023-03-05T12:12:21.804Z,10.82
2023-03-05T12:14:58.120Z,11.35
2023-03-05T12:17:38.653Z,11.77
2023-03-05T12:20:38.512Z,12.00
2023-03-05T12:23:05.880Z,11.23
2023-03-05T12:25:47.066Z,11.55
2023-03-05T12:28:43.152Z,11.60
2023-03-05T12:31:10.515Z,11.82
2023-03-05T12:33:42.955Z,12.38
2023-03-05T12:36:22.088Z,12.85
2023-03-05T12:38:56.905Z,11.95
2023-03-05T12:41:25.433Z,11.38
2023-03-05T12:44:06.359Z,11.38
2023-03-05T12:46:37.491Z,10.90
2023-03-05T12:49:20.444Z,11.75
2023-03-05T12:51:49.898Z,10.68
2023-03-05T12:54:22.949Z,12.23
2023-03-05T12:56:52.296Z,11.43
2023-03-05T12:59:23.327Z,11.80
2023-03-05T13:02:04.875Z,11.88
2023-03-05T13:04:37.042Z,12.32
2023-03-05T13:07:12.668Z,11.65
2023-03-05T13:09:40.065Z,12.32
2023-03-05T13:12:13.977Z,11.15
2023-03-05T13:14:46.641Z,11.88
2023-03-05T13:17:34.750Z,11.98
2023-03-05T13:20:07.514Z,11.02
2023-03-05T13:22:38.972Z,11.52
2023-03-05T13:25:20.638Z,11.18
2023-03-05T13:27:47.972Z,12.02
2023-03-05T13:30:35.562Z,12.07
2023-03-05T13:33:04.784Z,11.05
2023-03-05T13:35:33.063Z,11.18
2023-03-05T13:38:02.619Z,11.13
2023-03-05T13:40:35.082Z,11.85
2023-03-05T13:43:20.668Z,10.63
2023-03-05T13:45:58.512Z,11.80
2023-03-05T13:48:28.105Z,12.45
2023-03-05T13:50:59.147Z,11.57
2023-03-05T13:53:31.591Z,12.43
2023-03-05T13:56:06.290Z,11.95
2023-03-05T13:58:54.460Z,12.25
2023-03-05T14:01:36.885Z,12.32
2023-03-05T14:04:26.256Z,11.93
2023-03-05T14:07:01.417Z,11.77
2023-03-05T14:09:31.771Z,11.43
2023-03-05T14:12:08.731Z,11.93
2023-03-05T14:14:38.162Z,11.95
2023-03-05T14:17:27.658Z,11.77
2023-03-05T14:20:16.814Z,11.35
2023-03-05T14:22:46.226Z,11.00
2023-03-05T14:25:35.473Z,12.02
2023-03-05T14:28:05.567Z,11.45
2023-03-05T14:30:36.360Z,12.05
2023-03-05T14:33:04.557Z,11.90
2023-03-05T14:35:34.363Z,11.85
2023-03-05T14:38:02.062Z,11.52
2023-03-05T14:40:33.198Z,11.10
2023-03-05T14:43:01.261Z,10.45
2023-03-05T14:45:30.099Z,11.10
2023-03-05T14:48:00.401Z,10.45
2023-03-05T14:50:37.606Z,9.80
2023-03-05T14:53:13.725Z,10.00
2023-03-05T14:55:43.869Z,9.93
2023-03-05T14:58:18.774Z,9.57
2023-03-05T15:00:46.100Z,10.82
2023-03-05T15:03:15.325Z,9.95
2023-03-05T15:05:44.618Z,9.43
2023-03-05T15:08:20.380Z,9.30
2023-03-05T15:10:50.153Z,10.02
2023-03-05T15:13:22.447Z,9.48
2023-03-05T15:15:54.057Z,9.45
2023-03-05T15:18:22.724Z,9.35
2023-03-05T15:20:52.030Z,9.30
2023-03-05T15:23:21.927Z,9.23
2023-03-05T15:25:49.587Z,8.77
2023-03-05T15:28:20.398Z,9.50
2023-03-05T15:30:48.038Z,8.77
2023-03-05T15:33:17.471Z,10.23
2023-03-05T15:35:45.412Z,9.27
2023-03-05T15:38:15.333Z,9.52
2023-03-05T15:40:44.208Z,9.13
2023-03-05T15:43:11.705Z,9.52
2023-03-05T15:45:41.301Z,9.35
2023-03-05T15:48:11.199Z,10.02
2023-03-05T15:50:43.759Z,8.85
2023-03-05T15:53:17.018Z,8.75
2023-03-05T15:55:48.943Z,8.77
2023-03-05T15:58:17.334Z,8.55
2023-03-05T16:00:49.644Z,8.98
2023-03-05T16:03:17.196Z,9.25
2023-03-05T16:05:47.598Z,10.02
2023-03-05T16:08:15.318Z,9.40
2023-03-05T16:10:47.266Z,9.60
2023-03-05T16:13:18.607Z,9.07
2023-03-05T16:15:54.187Z,10.02
2023-03-05T16:18:23.039Z,9.93
2023-03-05T16:20:56.387Z,10.27
2023-03-05T16:23:24.562Z,11.02
2023-03-05T16:25:52.649Z,9.93
2023-03-05T16:28:19.981Z,9.57
2023-03-05T16:30:56.268Z,10.02
2023-03-05T16:33:26.031Z,10.25
2023-03-05T16:36:22.827Z,9.65
2023-03-05T16:38:54.907Z,10.80
2023-03-05T16:41:24.375Z,11.23
2023-03-05T16:43:58.184Z,11.20
2023-03-05T16:46:29.857Z,12.05
2023-03-05T16:48:58.441Z,13.30
2023-03-05T16:51:28.901Z,13.13
2023-03-05T16:53:56.354Z,12.73
2023-03-05T16:56:24.053Z,12.45
2023-03-05T16:58:53.720Z,11.95
2023-03-05T17:01:22.012Z,13.35
2023-03-05T17:03:50.771Z,12.75
2023-03-05T17:06:24.051Z,12.70
2023-03-05T17:08:54.929Z,13.48
2023-03-05T17:11:23.669Z,16.20
2023-03-05T17:13:51.208Z,17.73
2023-03-05T17:16:19.873Z,17.08
2023-03-05T17:18:50.754Z,14.20
2023-03-05T17:21:18.090Z,13.63
2023-03-05T17:23:45.699Z,12.73
2023-03-05T17:26:15.981Z,12.30
2023-03-05T17:28:44.094Z,12.70
2023-03-05T17:31:12.771Z,12.73
2023-03-05T17:33:41.719Z,12.23
2023-03-05T17:36:21.925Z,12.07
2023-03-05T17:38:53.213Z,11.82
2023-03-05T17:41:23.765Z,11.75
2023-03-05T17:43:56.168Z,11.55
2023-03-05T17:46:50.167Z,12.05
2023-03-05T17:49:20.367Z,12.00
2023-03-05T17:51:56.417Z,12.23
2023-03-05T17:54:24.088Z,11.88
2023-03-05T17:56:57.987Z,11.82
2023-03-05T17:59:26.259Z,11.45
2023-03-05T18:01:54.047Z,10.95
2023-03-05T18:07:55.306Z,11.15
2023-03-05T18:10:25.074Z,11.25
2023-03-05T18:12:55.531Z,10.98
2023-03-05T18:15:27.744Z,11.70
2023-03-05T18:18:00.637Z,10.43
2023-03-05T18:20:34.478Z,11.13
2023-03-05T18:23:12.672Z,10.73
2023-03-05T18:25:44.728Z,11.52
2023-03-05T18:28:14.846Z,10.70
2023-03-05T18:30:46.418Z,10.40
2023-03-05T18:33:23.145Z,11.38
2023-03-05T18:35:56.571Z,11.73
2023-03-05T18:38:26.034Z,11.45
2023-03-05T18:40:58.259Z,11.32
2023-03-05T18:43:25.757Z,9.98
2023-03-05T18:46:31.882Z,10.68
2023-03-05T18:49:02.031Z,10.20
2023-03-05T18:51:29.996Z,11.07
2023-03-05T18:53:57.717Z,11.20
2023-03-05T18:56:25.994Z,11.32
2023-03-05T18:58:58.883Z,11.38
2023-03-05T19:01:27.905Z,11.40
2023-03-05T19:03:55.918Z,11.02
2023-03-05T19:06:26.329Z,9.98
2023-03-05T19:09:47.065Z,10.60
2023-03-05T19:12:19.710Z,8.65
2023-03-05T19:14:49.556Z,8.48
2023-03-05T19:17:17.247Z,8.18
2023-03-05T19:19:50.234Z,8.07
2023-03-05T19:22:17.715Z,8.23
2023-03-05T19:25:17.342Z,8.95
2023-03-05T19:27:47.479Z,8.38
2023-03-05T19:30:23.439Z,8.20
2023-03-05T19:32:58.099Z,7.30
2023-03-05T19:35:26.165Z,7.43
2023-03-05T19:37:57.041Z,7.20
2023-03-05T19:40:24.580Z,7.33
2023-03-05T19:42:52.210Z,6.22
2023-03-05T19:45:22.455Z,7.20
2023-03-05T19:47:49.972Z,7.63
2023-03-05T19:50:17.579Z,6.95
2023-03-05T19:52:52.973Z,7.18
2023-03-05T19:55:23.211Z,8.50
2023-03-05T19:57:50.668Z,8.77
2023-03-05T20:00:19.188Z,8.70
2023-03-05T20:02:48.826Z,8.30
2023-03-05T20:05:16.832Z,8.30
2023-03-05T20:07:44.677Z,8.80
2023-03-05T20:10:14.516Z,8.27
2023-03-05T20:12:48.139Z,8.18
2023-03-05T20:15:18.480Z,8.15
2023-03-05T20:17:48.638Z,8.15
2023-03-05T20:20:18.312Z,8.20
2023-03-05T20:22:50.418Z,9.18
2023-03-05T20:25:24.797Z,8.43
2023-03-05T20:27:52.732Z,10.18
2023-03-05T20:30:20.580Z,10.48
2023-03-05T20:32:48.092Z,10.43
2023-03-05T20:35:18.101Z,11.82
2023-03-05T20:38:31.184Z,13.20
2023-03-05T20:41:07.521Z,13.25
2023-03-05T20:43:41.286Z,10.95
2023-03-05T20:46:24.992Z,10.38
2023-03-05T20:48:55.905Z,9.63
2023-03-05T20:51:27.121Z,10.57
2023-03-05T20:53:58.367Z,10.38
2023-03-05T20:56:29.611Z,9.70
2023-03-05T20:59:00.470Z,9.70
2023-03-05T21:01:28.836Z,10.60
2023-03-05T21:03:59.933Z,10.65
2023-03-05T21:06:38.854Z,10.10
2023-03-05T21:09:07.200Z,10.48
2023-03-05T21:11:35.985Z,10.63
2023-03-05T21:14:03.591Z,11.32
2023-03-05T21:16:30.991Z,13.27
2023-03-05T21:18:58.539Z,12.10
2023-03-05T21:21:26.131Z,11.07
2023-03-05T21:23:58.893Z,11.50
2023-03-05T21:26:30.857Z,11.65
2023-03-05T21:28:59.748Z,11.60
2023-03-05T21:31:30.272Z,12.63
2023-03-05T21:33:57.798Z,12.00
2023-03-05T21:36:25.488Z,12.18
2023-03-05T21:38:55.423Z,12.45
2023-03-05T21:41:27.727Z,11.93
2023-03-05T21:43:55.283Z,12.52
2023-03-05T21:46:25.135Z,12.10
2023-03-05T21:48:52.733Z,14.05
2023-03-05T21:52:03.765Z,12.52
2023-03-05T21:54:31.321Z,12.23
2023-03-05T21:57:01.740Z,12.60
2023-03-05T21:59:32.153Z,13.02
2023-03-05T22:01:59.833Z,12.15
2023-03-05T22:04:27.951Z,12.25
2023-03-05T22:06:56.340Z,12.57
2023-03-05T22:09:24.709Z,12.63
2023-03-05T22:11:52.489Z,12.43
2023-03-05T22:14:20.707Z,12.68
2023-03-05T22:16:52.022Z,13.15
2023-03-05T22:19:22.520Z,12.98
2023-03-05T22:21:53.226Z,13.60
2023-03-05T22:24:29.530Z,13.60
2023-03-05T22:26:56.804Z,12.38
2023-03-05T22:29:24.332Z,12.48
2023-03-05T22:31:56.609Z,12.40
2023-03-05T22:34:29.947Z,11.57
2023-03-05T22:36:58.282Z,12.32
2023-03-05T22:39:28.098Z,12.23
2023-03-05T22:41:55.669Z,12.73
2023-03-05T22:44:25.038Z,12.07
2023-03-05T22:46:52.497Z,12.80
2023-03-05T22:49:27.710Z,12.43
2023-03-05T22:52:01.663Z,11.73
2023-03-05T22:54:29.299Z,11.48
2023-03-05T22:56:56.723Z,12.30
2023-03-05T22:59:25.046Z,12.13
2023-03-05T23:01:52.590Z,11.50
2023-03-05T23:04:51.324Z,12.00
2023-03-05T23:07:26.308Z,12.68
2023-03-05T23:10:04.916Z,12.32
2023-03-05T23:12:37.561Z,12.65
2023-03-05T23:15:12.073Z,12.55
2023-03-05T23:17:39.699Z,12.95
2023-03-05T23:20:10.141Z,12.77
2023-03-05T23:22:41.583Z,12.70
2023-03-05T23:25:22.149Z,12.63
2023-03-05T23:27:53.243Z,12.13
2023-03-05T23:30:29.018Z,12.43
2023-03-05T23:32:59.949Z,12.18
2023-03-05T23:35:44.712Z,12.73
2023-03-05T23:38:13.742Z,11.98
2023-03-05T23:40:47.030Z,11.55
2023-03-05T23:43:15.863Z,12.68
2023-03-05T23:45:45.288Z,11.40
2023-03-05T23:48:12.829Z,12.13
2023-03-05T23:50:42.341Z,12.30
2023-03-05T23:53:22.868Z,11.80
2023-03-05T23:55:53.461Z,11.73
2023-03-05T23:58:24.817Z,12.35
